Time;durP1;ratioP1;P1;durP2;ratioP2;P2;SDS_P1;SDS_P2;PMS_P1;PMS_P2;Temp;Humidity;BMP_temperature;BMP_pressure;BME280_temperature;BME280_humidity;BME280_pressure;Samples;Min_cycle;Max_cycle;Signal;HPM_P1;HPM_P2
2021/08/11 00:00:55;;;;;;;13.63;6.23;;;;;;;12.70;100.00;101095.76;125204;1093;64226;-78
2021/08/11 00:03:22;;;;;;;6.80;5.00;;;;;;;12.69;100.00;101096.75;125118;1093;64215;-83
2021/08/11 00:05:49;;;;;;;10.40;5.90;;;;;;;12.68;100.00;101097.77;125146;1092;64403;-82
2021/08/11 00:08:16;;;;;;;10.13;6.07;;;;;;;12.64;100.00;101103.47;126150;1092;64188;-80
2021/08/11 00:10:44;;;;;;;8.33;5.93;;;;;;;12.65;100.00;101099.78;125118;1093;64295;-79
2021/08/11 00:13:11;;;;;;;7.80;5.07;;;;;;;12.63;100.00;101098.31;124808;1093;64275;-80
2021/08/11 00:15:38;;;;;;;8.87;5.27;;;;;;;12.62;100.00;101097.49;125032;1093;64198;-80
2021/08/11 00:18:06;;;;;;;7.03;5.37;;;;;;;12.62;100.00;101102.81;125146;1092;64345;-83
2021/08/11 00:20:35;;;;;;;7.07;5.47;;;;;;;12.61;100.00;101101.14;125243;1093;64272;-82
2021/08/11 00:23:03;;;;;;;6.93;4.50;;;;;;;12.60;100.00;101102.16;125557;1092;64243;-81
2021/08/11 00:25:30;;;;;;;7.23;4.73;;;;;;;12.59;100.00;101102.33;125254;1092;64272;-82
2021/08/11 00:27:57;;;;;;;8.30;4.83;;;;;;;12.58;100.00;101106.84;125137;1093;64169;-81
2021/08/11 00:30:24;;;;;;;8.73;5.60;;;;;;;12.56;100.00;101116.83;125213;1093;64288;-81
2021/08/11 00:32:59;;;;;;;9.80;5.60;;;;;;;12.55;100.00;101107.17;125112;1093;64329;-81
2021/08/11 00:35:26;;;;;;;8.83;5.67;;;;;;;12.54;100.00;101105.53;125558;1092;64263;-82
2021/08/11 00:37:55;;;;;;;11.27;6.13;;;;;;;12.50;100.00;101108.73;125233;1093;64235;-77
2021/08/11 00:40:26;;;;;;;12.10;6.90;;;;;;;12.46;100.00;101105.59;124987;1092;64291;-81
2021/08/11 00:42:53;;;;;;;9.43;5.50;;;;;;;12.43;100.00;101113.91;125263;1093;64393;-81
2021/08/11 00:45:20;;;;;;;7.23;5.70;;;;;;;12.38;99.96;101110.96;125235;1093;64246;-81
2021/08/11 00:47:51;;;;;;;8.67;6.50;;;;;;;12.33;99.90;101100.86;125412;1093;64292;-80
2021/08/11 00:50:28;;;;;;;8.93;6.30;;;;;;;12.31;100.00;101099.38;126299;1092;64156;-79
2021/08/11 00:52:55;;;;;;;10.57;5.97;;;;;;;12.27;99.91;101104.22;125558;1093;64317;-83
2021/08/11 00:55:24;;;;;;;11.23;6.40;;;;;;;12.25;100.00;101106.22;125243;1092;64371;-81
2021/08/11 00:57:56;;;;;;;8.97;5.77;;;;;;;12.24;100.00;101110.72;125109;1093;64387;-81
2021/08/11 01:00:24;;;;;;;9.23;6.73;;;;;;;12.23;100.00;101097.59;125228;1091;64826;-79
2021/08/11 01:02:53;;;;;;;9.97;5.93;;;;;;;12.21;100.00;101100.41;125184;1092;64252;-79
2021/08/11 01:05:22;;;;;;;11.10;6.00;;;;;;;12.20;100.00;101103.27;125147;1093;64194;-79
2021/08/11 01:07:54;;;;;;;13.77;6.50;;;;;;;12.20;100.00;101103.27;126074;1093;64197;-79
2021/08/11 01:10:21;;;;;;;9.27;6.83;;;;;;;12.16;99.92;101099.30;125699;1092;64295;-82
2021/08/11 01:12:49;;;;;;;7.67;5.63;;;;;;;12.14;100.00;101104.79;125125;1093;64183;-80
2021/08/11 01:15:17;;;;;;;10.85;6.45;;;;;;;12.14;100.00;101109.29;125152;1093;64355;-82
2021/08/11 01:17:44;;;;;;;7.57;5.70;;;;;;;12.13;100.00;101113.75;125020;1093;64283;-79
2021/08/11 01:20:15;;;;;;;9.30;6.10;;;;;;;12.12;100.00;101112.11;125119;1092;64269;-84
2021/08/11 01:23:05;;;;;;;12.20;6.57;;;;;;;12.10;100.00;101108.80;125342;1092;64329;-79
2021/08/11 01:25:43;;;;;;;11.45;6.15;;;;;;;12.10;100.00;101103.48;125478;1093;64368;-80
2021/08/11 01:28:51;;;;;;;12.03;6.43;;;;;;;12.10;100.00;101111.46;125491;1093;64160;-81
2021/08/11 01:31:46;;;;;;;9.33;6.20;;;;;;;12.08;100.00;101105.48;125199;1093;64451;-79
2021/08/11 01:34:43;;;;;;;12.23;7.53;;;;;;;12.04;100.00;101109.49;125119;1093;64268;-79
2021/08/11 01:37:23;;;;;;;11.83;6.77;;;;;;;12.03;100.00;101107.85;125500;1092;64359;-81
2021/08/11 01:39:56;;;;;;;11.47;6.37;;;;;;;12.03;100.00;101107.85;125132;1093;64249;-81
2021/08/11 01:42:33;;;;;;;11.43;7.03;;;;;;;12.01;100.00;101110.68;125119;1093;64237;-80
2021/08/11 01:45:34;;;;;;;8.97;5.97;;;;;;;12.01;100.00;101104.54;125306;1093;64244;-79
2021/08/11 01:48:06;;;;;;;8.90;5.77;;;;;;;12.00;100.00;101113.50;125167;1093;64359;-81
2021/08/11 01:50:37;;;;;;;11.40;7.70;;;;;;;11.99;100.00;101103.89;125167;1093;64262;-80
2021/08/11 01:53:06;;;;;;;10.30;6.50;;;;;;;11.96;100.00;101114.85;124990;1093;64288;-79
2021/08/11 01:55:36;;;;;;;10.35;6.35;;;;;;;11.93;100.00;101113.38;125206;1093;64371;-80
2021/08/11 01:58:05;;;;;;;10.73;6.67;;;;;;;11.93;100.00;101112.55;125261;1092;64176;-81
2021/08/11 02:00:33;;;;;;;9.50;6.90;;;;;;;11.91;100.00;101114.55;125236;1093;64947;-81
2021/08/11 02:03:04;;;;;;;9.73;6.40;;;;;;;11.90;100.00;101118.20;125142;1093;64198;-81
2021/08/11 02:05:31;;;;;;;10.25;7.45;;;;;;;11.88;100.00;101109.53;125088;1092;64340;-81
2021/08/11 02:08:00;;;;;;;10.13;7.40;;;;;;;11.89;100.00;101111.23;125113;1092;64212;-80
2021/08/11 02:10:29;;;;;;;11.30;7.83;;;;;;;11.90;100.00;101113.73;125357;1092;64364;-80
2021/08/11 02:12:56;;;;;;;11.33;7.50;;;;;;;11.92;100.00;101105.56;125164;1093;64272;-83
2021/08/11 02:15:24;;;;;;;11.17;7.77;;;;;;;11.93;100.00;101113.38;125283;1092;64291;-81
2021/08/11 02:17:52;;;;;;;11.25;7.60;;;;;;;11.97;100.00;101108.55;125118;1093;64288;-81
2021/08/11 02:20:19;;;;;;;10.03;7.47;;;;;;;11.98;100.00;101104.88;125158;1093;64291;-80
2021/08/11 02:22:46;;;;;;;12.43;7.73;;;;;;;12.00;100.00;101105.53;125122;1093;64364;-81
2021/08/11 02:25:15;;;;;;;12.13;8.47;;;;;;;12.00;100.00;101105.53;125176;1093;64355;-81
2021/08/11 02:27:52;;;;;;;15.17;7.63;;;;;;;12.01;100.00;101115.17;125206;1092;64268;-82
2021/08/11 02:30:34;;;;;;;12.80;7.03;;;;;;;12.00;100.00;101113.50;125223;1093;64272;-81
2021/08/11 02:33:13;;;;;;;10.23;7.20;;;;;;;11.99;100.00;101106.55;125270;1092;64182;-80
2021/08/11 02:35:54;;;;;;;11.15;7.30;;;;;;;11.99;100.00;101101.23;125175;1093;64204;-81
2021/08/11 02:38:28;;;;;;;14.40;7.43;;;;;;;12.00;100.00;101108.19;124993;1093;64351;-79
2021/08/11 02:41:08;;;;;;;10.55;7.65;;;;;;;12.00;100.00;101108.19;125051;1093;64272;-81
2021/08/11 02:43:47;;;;;;;15.53;7.70;;;;;;;12.02;100.00;101111.50;125271;1093;64203;-78
2021/08/11 02:46:21;;;;;;;11.23;7.10;;;;;;;12.01;100.00;101112.52;125275;1093;64245;-80
2021/08/11 02:48:59;;;;;;;8.65;5.50;;;;;;;12.00;100.00;101113.50;125094;1093;64248;-81
2021/08/11 02:51:29;;;;;;;9.70;7.85;;;;;;;11.98;100.00;101115.50;125187;1093;64288;-80
2021/08/11 02:54:01;;;;;;;9.80;7.30;;;;;;;11.96;100.00;101112.19;125266;1093;64249;-80
2021/08/11 02:56:28;;;;;;;11.37;6.47;;;;;;;11.94;100.00;101120.36;125192;1092;64195;-81
2021/08/11 02:58:55;;;;;;;9.07;6.33;;;;;;;11.92;100.00;101127.69;125070;1093;64287;-81
2021/08/11 03:01:25;;;;;;;10.80;7.03;;;;;;;11.90;100.00;101128.83;125174;1093;64390;-81
2021/08/11 03:03:52;;;;;;;18.40;8.40;;;;;;;11.86;100.00;101131.00;125135;1092;64291;-81
2021/08/11 03:06:19;;;;;;;11.30;8.10;;;;;;;11.86;100.00;101122.17;125279;1093;64248;-82
2021/08/11 03:08:48;;;;;;;13.47;7.77;;;;;;;11.85;100.00;101126.66;125227;1093;64374;-80
2021/08/11 03:11:15;;;;;;;12.30;8.10;;;;;;;11.83;100.00;101129.48;125414;1093;64163;-81
2021/08/11 03:13:44;;;;;;;12.40;7.77;;;;;;;11.83;100.00;101126.83;126714;1093;64272;-81
2021/08/11 03:16:13;;;;;;;11.60;7.57;;;;;;;11.82;100.00;101127.84;125233;1093;64428;-77
2021/08/11 03:18:41;;;;;;;13.23;7.07;;;;;;;11.81;100.00;101128.83;125131;1092;64857;-80
2021/08/11 03:21:08;;;;;;;14.10;8.03;;;;;;;11.81;100.00;101123.52;125101;1093;64208;-80
2021/08/11 03:23:41;;;;;;;12.15;7.50;;;;;;;11.81;100.00;101123.52;125141;1093;64248;-81
2021/08/11 03:26:08;;;;;;;12.60;7.37;;;;;;;11.82;100.00;101122.53;125175;1093;64291;-81
2021/08/11 03:28:35;;;;;;;16.17;8.50;;;;;;;11.82;100.00;101122.53;125235;1093;64198;-80
2021/08/11 03:31:02;;;;;;;13.30;7.65;;;;;;;11.82;100.00;101117.22;125216;1093;64311;-80
2021/08/11 03:33:29;;;;;;;13.73;8.00;;;;;;;11.81;100.00;101118.20;125186;1093;65411;-80
2021/08/11 03:35:56;;;;;;;11.17;7.83;;;;;;;11.80;100.00;101119.22;125123;1092;64245;-84
2021/08/11 03:38:23;;;;;;;13.77;8.73;;;;;;;11.79;100.00;101133.52;125071;1093;64272;-78
2021/08/11 03:40:50;;;;;;;14.17;8.53;;;;;;;11.79;100.00;101130.02;124854;1092;64409;-79
2021/08/11 03:43:17;;;;;;;13.73;7.87;;;;;;;11.75;100.00;101126.89;124992;1091;64275;-82
2021/08/11 03:45:48;;;;;;;14.50;8.60;;;;;;;11.73;100.00;101128.89;125096;1093;64288;-83
2021/08/11 03:48:15;;;;;;;14.80;8.47;;;;;;;11.71;100.00;101125.57;125188;1093;64294;-82
2021/08/11 03:50:42;;;;;;;12.40;8.15;;;;;;;11.69;100.00;101126.72;125262;1093;64291;-81
2021/08/11 03:53:10;;;;;;;12.00;8.23;;;;;;;11.66;100.00;101117.27;125041;1092;64381;-80
2021/08/11 03:55:39;;;;;;;17.37;9.17;;;;;;;11.65;100.00;101120.13;125002;1093;64668;-82
2021/08/11 03:58:06;;;;;;;12.10;8.17;;;;;;;11.66;100.00;101117.27;125011;1093;64367;-77
2021/08/11 04:00:34;;;;;;;12.10;8.25;;;;;;;11.68;100.00;101120.59;125004;1093;64302;-80
2021/08/11 04:03:01;;;;;;;15.23;8.40;;;;;;;11.69;100.00;101130.23;125102;1093;64375;-81
2021/08/11 04:05:32;;;;;;;14.60;8.70;;;;;;;11.71;100.00;101125.57;125705;1092;64393;-80
2021/08/11 04:07:59;;;;;;;14.30;9.40;;;;;;;11.73;100.00;101122.72;126326;1093;64289;-82
2021/08/11 04:10:26;;;;;;;16.00;8.03;;;;;;;11.77;100.00;101130.20;125682;1092;64352;-80
2021/08/11 04:12:53;;;;;;;15.43;8.37;;;;;;;11.79;100.00;101125.55;125428;1093;64275;-82
2021/08/11 04:15:21;;;;;;;14.15;8.00;;;;;;;11.81;100.00;101136.80;125042;1093;64275;-80
2021/08/11 04:17:48;;;;;;;12.67;8.30;;;;;;;11.83;100.00;101140.13;125007;1092;64358;-80
2021/08/11 04:20:15;;;;;;;10.87;7.47;;;;;;;11.87;100.00;101145.11;125075;1093;64237;-80
2021/08/11 04:22:43;;;;;;;11.37;8.17;;;;;;;11.88;100.00;101137.00;125129;1092;64402;-81
2021/08/11 04:25:10;;;;;;;12.73;7.67;;;;;;;11.93;100.00;101139.14;125274;1093;64639;-79
2021/08/11 04:27:37;;;;;;;12.73;7.37;;;;;;;11.97;100.00;101140.45;124977;1093;64317;-80
2021/08/11 04:30:08;;;;;;;13.00;8.40;;;;;;;12.00;100.00;101142.75;124974;1092;64270;-80
2021/08/11 04:32:35;;;;;;;10.80;7.45;;;;;;;12.00;100.00;101145.41;125018;1093;64249;-80
2021/08/11 04:35:09;;;;;;;12.13;8.23;;;;;;;12.02;100.00;101154.05;125067;1093;64886;-81
2021/08/11 04:37:37;;;;;;;10.55;7.30;;;;;;;12.04;100.00;101147.55;125262;1093;64218;-82
2021/08/11 04:40:07;;;;;;;11.40;6.90;;;;;;;12.06;100.00;101154.53;125639;1092;62897;-80
2021/08/11 04:42:34;;;;;;;12.90;7.90;;;;;;;12.10;100.00;101150.53;125464;1093;64398;-79
2021/08/11 04:45:03;;;;;;;12.77;8.67;;;;;;;12.15;100.00;101148.98;127500;1093;61748;-81
2021/08/11 04:47:30;;;;;;;11.90;7.47;;;;;;;12.20;100.00;101148.48;125824;1093;64275;-85
2021/08/11 04:49:57;;;;;;;12.90;7.15;;;;;;;12.26;100.00;101160.24;125211;1092;64391;-83
2021/08/11 04:52:24;;;;;;;14.05;7.90;;;;;;;12.30;100.00;101162.38;125177;1092;64198;-81
2021/08/11 04:54:51;;;;;;;12.00;8.53;;;;;;;12.35;100.00;101153.89;125125;1092;64198;-80
2021/08/11 04:57:19;;;;;;;13.43;8.57;;;;;;;12.41;100.00;101159.34;125276;1092;64368;-80
2021/08/11 04:59:46;;;;;;;12.40;7.50;;;;;;;12.49;100.00;101169.08;125307;1092;64288;-81
2021/08/11 05:02:13;;;;;;;12.35;7.75;;;;;;;12.55;100.00;101164.90;125240;1093;64282;-83
2021/08/11 05:04:41;;;;;;;11.63;7.17;;;;;;;12.62;100.00;101169.36;125187;1093;64249;-80
2021/08/11 05:07:09;;;;;;;11.83;6.60;;;;;;;12.69;100.00;101168.62;125257;1092;64389;-81
2021/08/11 05:09:36;;;;;;;13.43;7.80;;;;;;;12.74;100.00;101172.41;125300;1092;64275;-81
2021/08/11 05:12:03;;;;;;;11.87;7.47;;;;;;;12.81;100.00;101173.38;125308;1093;64227;-80
2021/08/11 05:14:33;;;;;;;11.63;6.97;;;;;;;12.89;100.00;101183.13;125507;1093;64418;-79
2021/08/11 05:17:00;;;;;;;12.43;7.30;;;;;;;12.95;100.00;101177.09;125664;1093;64475;-82
2021/08/11 05:19:27;;;;;;;16.27;7.37;;;;;;;13.02;100.00;101175.35;125192;1093;64321;-81
2021/08/11 05:21:54;;;;;;;13.43;8.13;;;;;;;13.11;100.00;101181.47;125231;1092;64787;-81
2021/08/11 05:24:21;;;;;;;13.13;6.83;;;;;;;13.19;100.00;101178.70;125295;1091;64275;-80
2021/08/11 05:26:49;;;;;;;12.27;6.83;;;;;;;13.27;100.00;101175.16;125120;1092;64272;-81
2021/08/11 05:29:19;;;;;;;14.10;8.37;;;;;;;13.35;100.00;101176.95;126746;1093;64252;-81
2021/08/11 05:31:47;;;;;;;14.50;8.10;;;;;;;13.43;100.00;101171.52;125112;1092;64281;-82
2021/08/11 05:34:14;;;;;;;12.80;7.57;;;;;;;13.52;100.00;101173.11;126499;1093;64693;-79
2021/08/11 05:36:41;;;;;;;11.73;6.53;;;;;;;13.59;100.00;101176.69;125186;1093;64586;-80
2021/08/11 05:39:13;;;;;;;15.40;8.20;;;;;;;13.68;100.00;101180.09;125404;1093;64252;-81
2021/08/11 05:41:41;;;;;;;15.60;8.23;;;;;;;13.79;100.00;101184.14;125672;1093;64298;-80
2021/08/11 05:44:09;;;;;;;15.77;7.83;;;;;;;13.87;100.00;101176.87;125788;1092;64325;-82
2021/08/11 05:46:36;;;;;;;11.95;7.90;;;;;;;13.97;100.00;101181.11;125815;1093;64260;-82
2021/08/11 05:49:06;;;;;;;10.90;7.25;;;;;;;14.04;100.00;101187.34;125307;1092;64294;-81
2021/08/11 05:51:34;;;;;;;13.93;6.93;;;;;;;14.15;100.00;101188.72;125295;1092;64272;-81
2021/08/11 05:54:02;;;;;;;12.30;7.63;;;;;;;14.23;100.00;101186.77;125318;1092;64291;-80
2021/08/11 05:56:30;;;;;;;10.80;7.67;;;;;;;14.32;99.88;101192.00;125219;1093;64229;-81
2021/08/11 05:58:57;;;;;;;18.07;7.60;;;;;;;14.42;99.88;101190.68;127837;1094;61813;-82
2021/08/11 06:01:25;;;;;;;11.67;8.23;;;;;;;14.52;99.62;101187.72;125585;1093;64195;-82
2021/08/11 06:03:59;;;;;;;12.40;7.80;;;;;;;14.61;99.03;101194.63;125417;1091;64884;-84
2021/08/11 06:06:27;;;;;;;12.00;7.63;;;;;;;14.70;98.52;101194.50;125501;1093;64342;-83
2021/08/11 06:08:55;;;;;;;14.47;7.60;;;;;;;14.81;98.49;101192.17;125735;1093;64389;-80
2021/08/11 06:11:22;;;;;;;13.90;8.53;;;;;;;14.90;98.28;101195.53;125270;1093;64198;-80
2021/08/11 06:13:52;;;;;;;11.47;7.73;;;;;;;14.97;97.56;101193.74;125522;1093;64285;-82
2021/08/11 06:16:23;;;;;;;13.00;8.23;;;;;;;15.06;97.09;101202.45;125386;1093;64269;-80
2021/08/11 06:18:50;;;;;;;14.33;8.40;;;;;;;15.14;96.93;101198.83;125193;1093;64246;-82
2021/08/11 06:21:17;;;;;;;14.40;8.17;;;;;;;15.22;96.68;101209.38;125126;1095;64381;-80
2021/08/11 06:23:44;;;;;;;10.95;7.30;;;;;;;15.31;95.96;101210.89;125111;1093;64272;-81
2021/08/11 06:26:12;;;;;;;13.90;8.70;;;;;;;15.36;95.78;101196.94;125237;1093;64221;-83
2021/08/11 06:28:39;;;;;;;12.17;8.07;;;;;;;15.43;95.71;101204.00;125239;1093;64284;-81
2021/08/11 06:31:08;;;;;;;14.13;9.03;;;;;;;15.52;95.82;101212.69;125093;1093;64246;-84
2021/08/11 06:33:36;;;;;;;18.73;8.13;;;;;;;15.63;95.49;101205.98;125269;1092;64431;-80
2021/08/11 06:36:03;;;;;;;16.70;9.13;;;;;;;15.70;94.96;101209.51;125329;1092;64272;-81
2021/08/11 06:38:30;;;;;;;14.60;8.87;;;;;;;15.78;94.47;101209.39;125137;1092;64271;-79
2021/08/11 06:40:57;;;;;;;13.20;8.53;;;;;;;15.85;93.99;101212.95;125380;1093;64232;-81
2021/08/11 06:43:30;;;;;;;14.93;7.90;;;;;;;15.97;94.22;101210.53;125325;1093;64313;-81
2021/08/11 06:45:57;;;;;;;17.10;9.47;;;;;;;16.06;93.44;101216.54;125304;1093;64333;-81
2021/08/11 06:48:24;;;;;;;15.10;10.17;;;;;;;16.14;93.29;101211.02;125226;1093;64326;-80
2021/08/11 06:50:55;;;;;;;16.13;9.53;;;;;;;16.27;93.57;101212.93;125141;1093;64358;-82
2021/08/11 06:53:22;;;;;;;15.77;8.23;;;;;;;16.35;92.09;101214.63;125254;1092;64519;-83
2021/08/11 06:55:49;;;;;;;14.33;9.67;;;;;;;16.43;91.88;101215.27;125339;1093;64199;-79
2021/08/11 06:58:17;;;;;;;20.03;8.73;;;;;;;16.50;90.83;101215.28;125097;1092;64537;-80
2021/08/11 07:00:44;;;;;;;16.03;10.67;;;;;;;16.56;90.33;101214.48;125497;1093;64275;-81
2021/08/11 07:03:12;;;;;;;14.63;10.57;;;;;;;16.65;90.79;101218.61;125294;1093;64272;-83
2021/08/11 07:05:39;;;;;;;17.45;10.70;;;;;;;16.71;89.45;101222.34;125302;1093;64269;-81
2021/08/11 07:08:15;;;;;;;19.93;10.93;;;;;;;16.81;89.75;101224.65;125246;1093;64380;-82
2021/08/11 07:10:42;;;;;;;16.43;9.47;;;;;;;16.91;90.12;101231.27;125319;1092;64455;-81
2021/08/11 07:13:09;;;;;;;16.07;9.00;;;;;;;16.98;88.99;101225.94;125055;1093;64449;-80
2021/08/11 07:15:40;;;;;;;20.60;9.97;;;;;;;17.06;88.80;101225.72;125756;1093;64184;-82
2021/08/11 07:18:07;;;;;;;14.17;9.07;;;;;;;17.19;88.89;101237.48;126715;1093;64375;-82
2021/08/11 07:20:34;;;;;;;20.17;10.73;;;;;;;17.29;88.44;101232.55;126098;1093;64269;-80
2021/08/11 07:23:01;;;;;;;15.83;10.80;;;;;;;17.40;87.88;101241.83;125935;1093;64693;-81
2021/08/11 07:25:29;;;;;;;15.13;9.83;;;;;;;17.51;88.35;101235.83;125837;1093;64284;-80
2021/08/11 07:27:56;;;;;;;19.07;11.43;;;;;;;17.62;86.23;101247.81;125942;1093;64250;-81
2021/08/11 07:30:26;;;;;;;16.83;11.10;;;;;;;17.67;86.74;101242.64;125286;1095;64265;-81
2021/08/11 07:32:53;;;;;;;23.27;12.37;;;;;;;17.73;86.02;101256.04;125153;1093;64295;-80
2021/08/11 07:35:39;;;;;;;20.67;13.10;;;;;;;17.79;85.80;101251.71;125184;1093;64291;-80
2021/08/11 07:38:07;;;;;;;18.80;12.00;;;;;;;17.95;85.03;101263.88;124947;1093;64662;-74
2021/08/11 07:40:35;;;;;;;21.83;13.97;;;;;;;18.09;85.55;101264.69;124626;1093;64339;-80
2021/08/11 07:43:05;;;;;;;19.20;12.30;;;;;;;18.32;84.66;101261.52;124797;1093;64304;-79
2021/08/11 07:45:33;;;;;;;18.93;12.47;;;;;;;18.50;83.07;101263.49;124741;1092;64224;-76
2021/08/11 07:48:00;;;;;;;18.40;11.87;;;;;;;18.57;82.42;101263.46;124601;1093;64427;-76
2021/08/11 07:50:31;;;;;;;17.73;9.50;;;;;;;18.49;82.20;101267.23;124723;1093;64307;-79
2021/08/11 07:52:59;;;;;;;21.53;11.67;;;;;;;18.63;81.78;101268.80;124733;1093;64314;-77
2021/08/11 07:55:27;;;;;;;15.47;9.93;;;;;;;18.75;81.03;101267.09;124876;1093;64375;-78
2021/08/11 07:57:54;;;;;;;13.63;9.77;;;;;;;18.85;79.91;101265.81;124844;1093;64275;-78
2021/08/11 08:00:22;;;;;;;16.27;10.77;;;;;;;18.98;80.78;101268.45;124769;1092;64272;-77
2021/08/11 08:02:51;;;;;;;16.97;9.80;;;;;;;19.08;80.07;101265.27;124802;1092;64288;-77
2021/08/11 08:05:20;;;;;;;16.43;9.77;;;;;;;19.08;77.79;101276.87;124690;1093;64371;-82
2021/08/11 08:07:48;;;;;;;19.30;12.77;;;;;;;19.19;77.24;101272.66;124756;1093;64202;-77
2021/08/11 08:10:16;;;;;;;18.73;12.20;;;;;;;19.26;77.14;101280.67;124812;1092;64280;-78
2021/08/11 08:12:44;;;;;;;13.67;8.47;;;;;;;19.22;76.62;101274.08;124899;1093;64420;-78
2021/08/11 08:15:13;;;;;;;20.13;10.50;;;;;;;19.22;76.26;101271.39;124753;1093;64199;-77
2021/08/11 08:17:42;;;;;;;15.67;10.00;;;;;;;19.23;76.62;101279.25;124801;1093;64402;-80
2021/08/11 08:20:15;;;;;;;18.03;11.63;;;;;;;19.24;75.78;101280.06;124817;1093;64224;-77
2021/08/11 08:22:44;;;;;;;16.80;11.15;;;;;;;19.24;75.30;101274.68;124864;1093;64271;-78
2021/08/11 08:25:11;;;;;;;18.03;11.57;;;;;;;19.14;75.46;101278.66;124723;1092;64327;-79
2021/08/11 08:27:39;;;;;;;19.73;11.37;;;;;;;19.13;76.87;101285.09;124932;1092;64240;-77
2021/08/11 08:30:08;;;;;;;17.20;10.07;;;;;;;19.18;76.68;101281.75;125206;1092;65138;-79
2021/08/11 08:32:35;;;;;;;16.30;10.33;;;;;;;19.30;76.22;101281.88;125010;1093;64300;-77
2021/08/11 08:35:03;;;;;;;17.67;11.40;;;;;;;19.42;76.39;101276.60;124949;1092;64204;-78
2021/08/11 08:37:38;;;;;;;17.27;10.30;;;;;;;19.55;77.79;101282.71;124805;1093;64272;-78
2021/08/11 08:40:09;;;;;;;15.97;10.67;;;;;;;19.63;75.77;101284.28;124787;1093;64317;-78
2021/08/11 08:42:38;;;;;;;16.20;10.15;;;;;;;19.69;75.05;101285.28;124885;1093;64291;-78
2021/08/11 08:45:07;;;;;;;16.60;11.07;;;;;;;19.61;73.54;101285.55;125227;1093;64278;-78
2021/08/11 08:47:38;;;;;;;16.93;11.00;;;;;;;19.50;75.25;101273.64;124881;1093;64317;-80
2021/08/11 08:50:08;;;;;;;15.55;10.60;;;;;;;19.43;74.79;101279.08;124881;1093;64435;-77
2021/08/11 08:52:37;;;;;;;16.47;11.17;;;;;;;19.34;75.40;101281.22;125033;1093;64278;-78
2021/08/11 08:55:05;;;;;;;13.90;9.00;;;;;;;19.25;75.37;101287.08;125057;1093;64177;-78
2021/08/11 08:57:35;;;;;;;14.90;10.30;;;;;;;19.15;75.94;101285.70;124865;1092;64265;-79
2021/08/11 09:00:08;;;;;;;15.50;10.30;;;;;;;19.08;75.51;101282.25;124842;1093;64377;-79
2021/08/11 09:02:40;;;;;;;13.50;9.63;;;;;;;19.12;75.56;101278.05;124928;1093;64252;-78
2021/08/11 09:05:10;;;;;;;17.17;9.53;;;;;;;19.19;75.18;101280.72;126751;1093;64199;-78
2021/08/11 09:07:45;;;;;;;13.43;10.30;;;;;;;19.29;75.49;101282.91;127491;1093;64221;-77
2021/08/11 09:10:27;;;;;;;15.27;9.00;;;;;;;19.38;76.59;101278.92;125112;1093;64275;-76
2021/08/11 09:13:08;;;;;;;12.43;8.33;;;;;;;19.48;76.64;101273.85;125121;1092;64387;-79
2021/08/11 09:15:41;;;;;;;15.50;9.80;;;;;;;19.54;75.75;101272.97;125110;1092;64387;-78
2021/08/11 09:18:19;;;;;;;14.37;9.37;;;;;;;19.61;74.48;101277.48;125138;1093;64272;-80
2021/08/11 09:21:10;;;;;;;15.53;10.20;;;;;;;19.66;74.03;101272.27;124959;1093;64198;-77
2021/08/11 09:23:45;;;;;;;12.53;7.33;;;;;;;19.63;73.81;101283.47;124926;1092;64345;-78
2021/08/11 09:26:15;;;;;;;13.17;7.43;;;;;;;19.62;74.38;101287.22;124789;1096;64233;-78
2021/08/11 09:28:44;;;;;;;13.83;8.50;;;;;;;19.61;73.39;101286.37;124920;1092;64387;-78
2021/08/11 09:31:30;;;;;;;13.30;8.13;;;;;;;19.63;74.67;101288.84;124850;1093;64224;-79
2021/08/11 09:34:03;;;;;;;16.60;8.30;;;;;;;19.63;74.00;101284.28;125156;1093;64221;-79
2021/08/11 09:36:48;;;;;;;16.53;9.93;;;;;;;19.64;73.88;101285.13;124950;1093;65367;-78
2021/08/11 09:39:17;;;;;;;14.53;8.50;;;;;;;19.68;73.62;101287.16;125081;1092;64741;-78
2021/08/11 09:42:16;;;;;;;13.77;6.53;;;;;;;19.74;73.49;101285.45;124938;1093;64358;-79
2021/08/11 09:44:59;;;;;;;10.03;5.43;;;;;;;19.80;70.26;101287.27;124709;1093;64203;-78
2021/08/11 09:47:27;;;;;;;8.23;4.70;;;;;;;19.91;69.90;101283.86;125079;1093;64291;-76
2021/08/11 09:50:04;;;;;;;10.13;6.30;;;;;;;20.26;69.27;101283.27;124937;1092;64249;-78
2021/08/11 09:52:47;;;;;;;11.77;5.87;;;;;;;20.63;68.87;101291.34;124900;1093;64307;-79
2021/08/11 09:55:16;;;;;;;8.90;5.93;;;;;;;20.74;65.34;101290.59;124927;1092;64279;-78
2021/08/11 09:57:44;;;;;;;8.40;5.70;;;;;;;20.82;65.28;101299.41;124963;1092;64323;-78
2021/08/11 10:00:14;;;;;;;6.40;4.95;;;;;;;21.07;66.42;101281.19;124835;1092;64272;-80
2021/08/11 10:02:42;;;;;;;9.13;5.07;;;;;;;21.23;64.83;101284.27;124878;1093;64281;-78
2021/08/11 10:05:30;;;;;;;9.47;5.30;;;;;;;21.36;63.30;101286.78;124838;1093;64384;-81
2021/08/11 10:07:57;;;;;;;7.20;4.60;;;;;;;21.62;63.12;101279.33;124749;1092;64333;-79
2021/08/11 10:10:24;;;;;;;6.27;4.83;;;;;;;21.67;62.49;101272.15;124814;1093;64221;-79
2021/08/11 10:12:53;;;;;;;6.43;4.50;;;;;;;21.70;60.74;101278.98;124790;1093;64706;-79
2021/08/11 10:15:22;;;;;;;9.97;5.33;;;;;;;21.83;61.44;101273.34;124865;1092;64409;-77
2021/08/11 10:17:51;;;;;;;10.20;5.23;;;;;;;21.90;60.11;101281.31;124879;1092;64287;-77
2021/08/11 10:20:21;;;;;;;6.63;4.90;;;;;;;22.03;60.32;101282.94;125098;1092;64312;-78
2021/08/11 10:22:49;;;;;;;11.07;5.17;;;;;;;22.17;59.11;101281.64;124734;1093;65476;-81
2021/08/11 10:25:16;;;;;;;8.30;4.80;;;;;;;22.33;58.33;101280.91;124998;1093;64873;-78
2021/08/11 10:27:45;;;;;;;4.40;3.00;;;;;;;22.42;55.75;101294.05;124947;1093;64706;-84
2021/08/11 10:30:13;;;;;;;5.07;3.27;;;;;;;22.43;55.85;101287.59;124908;1092;64294;-80
2021/08/11 10:32:42;;;;;;;5.55;3.70;;;;;;;22.63;56.91;101290.69;124962;1092;64310;-78
2021/08/11 10:35:10;;;;;;;5.03;3.13;;;;;;;22.74;56.82;101295.25;124726;1093;64310;-78
2021/08/11 10:37:38;;;;;;;6.83;4.70;;;;;;;22.69;55.72;101311.36;124837;1093;64425;-78
2021/08/11 10:40:06;;;;;;;4.70;2.90;;;;;;;22.53;55.25;101304.84;124903;1092;64285;-82
2021/08/11 10:42:33;;;;;;;5.27;2.93;;;;;;;22.37;54.14;101306.40;124773;1093;64859;-82
2021/08/11 10:45:01;;;;;;;9.00;3.27;;;;;;;22.19;54.83;101306.55;124973;1093;64365;-81
2021/08/11 10:47:30;;;;;;;9.40;4.27;;;;;;;22.11;55.54;101312.31;124842;1092;64245;-78
2021/08/11 10:50:05;;;;;;;4.27;2.33;;;;;;;22.05;53.18;101308.66;124926;1092;64314;-80
2021/08/11 10:52:32;;;;;;;6.03;2.90;;;;;;;22.12;54.34;101308.53;125056;1093;64233;-78
2021/08/11 10:55:03;;;;;;;5.87;2.90;;;;;;;22.29;55.17;101309.50;124935;1092;64241;-77
2021/08/11 10:57:37;;;;;;;4.75;2.55;;;;;;;22.38;51.28;101310.77;124864;1093;64410;-78
2021/08/11 11:00:08;;;;;;;5.33;3.05;;;;;;;22.51;52.52;101311.56;124840;1092;64246;-80
2021/08/11 11:02:41;;;;;;;3.30;2.27;;;;;;;22.63;51.17;101306.91;124774;1093;64246;-77
2021/08/11 11:05:20;;;;;;;4.60;2.63;;;;;;;22.73;51.36;101307.11;124696;1093;64231;-77
2021/08/11 11:08:10;;;;;;;4.20;2.40;;;;;;;22.90;51.26;101301.75;124812;1092;64297;-78
2021/08/11 11:10:39;;;;;;;4.70;2.30;;;;;;;23.05;49.91;101306.66;124800;1092;64326;-79
2021/08/11 11:13:31;;;;;;;4.70;2.40;;;;;;;23.08;50.58;101291.81;124840;1093;64329;-79
2021/08/11 11:16:03;;;;;;;4.10;2.60;;;;;;;23.26;49.62;101293.48;124796;1093;64269;-78
2021/08/11 11:18:30;;;;;;;6.33;2.90;;;;;;;23.31;48.81;101297.11;124796;1093;64275;-78
2021/08/11 11:20:58;;;;;;;4.43;2.43;;;;;;;23.48;49.05;101297.09;124860;1092;64224;-78